createdAt,value
2023-02-11T00:01:43.057Z,12.07
2023-02-11T00:04:09.447Z,11.57
2023-02-11T00:06:36.486Z,10.35
2023-02-11T00:09:03.092Z,9.38
2023-02-11T00:11:30.327Z,8.02
2023-02-11T00:14:01.158Z,10.45
2023-02-11T00:16:28.147Z,11.38
2023-02-11T00:18:54.821Z,8.38
2023-02-11T00:21:24.270Z,7.90
2023-02-11T00:23:51.137Z,9.65
2023-02-11T00:26:21.982Z,10.05
2023-02-11T00:28:49.315Z,6.68
2023-02-11T00:31:16.765Z,6.22
2023-02-11T00:33:44.246Z,7.72
2023-02-11T00:36:14.783Z,7.85
2023-02-11T00:38:42.696Z,8.02
2023-02-11T00:41:09.081Z,8.25
2023-02-11T00:43:35.699Z,6.75
2023-02-11T00:46:03.019Z,7.30
2023-02-11T00:48:30.556Z,6.05
2023-02-11T00:50:56.993Z,8.35
2023-02-11T00:53:23.984Z,8.32
2023-02-11T00:55:50.752Z,7.03
2023-02-11T00:58:17.373Z,9.25
2023-02-11T01:00:43.809Z,7.07
2023-02-11T01:03:10.236Z,6.53
2023-02-11T01:05:36.723Z,9.50
2023-02-11T01:08:03.156Z,6.03
2023-02-11T01:10:29.851Z,7.93
2023-02-11T01:12:56.275Z,7.10
2023-02-11T01:15:24.658Z,9.07
2023-02-11T01:17:51.102Z,10.63
2023-02-11T01:20:22.250Z,7.60
2023-02-11T01:22:48.690Z,13.50
2023-02-11T01:25:15.381Z,9.00
2023-02-11T01:27:42.246Z,7.60
2023-02-11T01:30:11.920Z,7.20
2023-02-11T01:32:39.532Z,6.45
2023-02-11T01:35:06.114Z,9.07
2023-02-11T01:40:01.264Z,7.55
2023-02-11T01:42:27.748Z,6.07
2023-02-11T01:44:54.301Z,6.50
2023-02-11T01:47:21.325Z,6.43
2023-02-11T01:49:50.791Z,7.05
2023-02-11T01:52:23.279Z,8.43
2023-02-11T01:55:10.920Z,6.53
2023-02-11T01:57:39.704Z,7.88
2023-02-11T02:00:09.474Z,5.63
2023-02-11T02:03:00.485Z,6.45
2023-02-11T02:05:26.893Z,7.13
2023-02-11T02:08:12.232Z,9.05
2023-02-11T02:10:41.773Z,4.90
2023-02-11T02:13:08.171Z,7.45
2023-02-11T02:15:36.262Z,6.72
2023-02-11T02:18:22.902Z,5.53
2023-02-11T02:21:08.222Z,8.30
2023-02-11T02:23:43.713Z,9.77
2023-02-11T02:26:19.847Z,7.57
2023-02-11T02:28:55.126Z,6.43
2023-02-11T02:31:41.161Z,6.97
2023-02-11T02:34:15.745Z,5.03
2023-02-11T02:37:04.435Z,7.18
2023-02-11T02:39:33.560Z,6.40
2023-02-11T02:42:00.103Z,8.43
2023-02-11T02:44:26.467Z,6.03
2023-02-11T02:46:52.924Z,6.70
2023-02-11T02:49:19.452Z,6.00
2023-02-11T02:52:01.243Z,5.75
2023-02-11T02:54:27.608Z,10.43
2023-02-11T02:56:57.163Z,11.38
2023-02-11T02:59:48.141Z,9.38
2023-02-11T03:02:22.326Z,8.93
2023-02-11T03:04:48.692Z,13.75
2023-02-11T03:07:20.766Z,9.43
2023-02-11T03:10:06.073Z,11.80
2023-02-11T03:12:33.195Z,12.95
2023-02-11T03:14:59.849Z,11.68
2023-02-11T03:17:27.737Z,13.90
2023-02-11T03:19:54.974Z,9.73
2023-02-11T03:22:32.659Z,16.70
2023-02-11T03:25:00.431Z,10.07
2023-02-11T03:27:28.701Z,12.25
2023-02-11T03:30:01.401Z,13.38
2023-02-11T03:32:30.266Z,12.75
2023-02-11T03:35:16.519Z,12.13
2023-02-11T03:37:42.827Z,14.85
2023-02-11T03:40:15.413Z,17.83
2023-02-11T03:43:02.046Z,11.68
2023-02-11T03:45:28.812Z,12.85
2023-02-11T03:47:58.551Z,13.32
2023-02-11T03:50:26.275Z,12.57
2023-02-11T03:52:53.426Z,9.93
2023-02-11T03:55:21.006Z,13.45
2023-02-11T04:00:14.195Z,13.23
2023-02-11T04:02:41.180Z,12.27
2023-02-11T04:05:08.591Z,12.15
2023-02-11T04:07:35.021Z,11.88
2023-02-11T04:10:01.542Z,10.85
2023-02-11T04:12:27.986Z,12.23
2023-02-11T04:14:54.410Z,13.15
2023-02-11T04:17:20.944Z,11.45
2023-02-11T04:19:47.317Z,11.82
2023-02-11T04:22:13.870Z,10.10
2023-02-11T04:24:40.395Z,8.13
2023-02-11T04:27:06.760Z,10.40
2023-02-11T04:29:33.392Z,10.88
2023-02-11T04:31:59.772Z,11.43
2023-02-11T04:34:26.398Z,13.50
2023-02-11T04:36:52.940Z,11.88
2023-02-11T04:39:19.461Z,10.00
2023-02-11T04:41:45.937Z,11.65
2023-02-11T04:44:12.428Z,11.60
2023-02-11T04:46:38.868Z,9.82
2023-02-11T04:49:05.844Z,12.95
2023-02-11T04:51:32.327Z,12.13
2023-02-11T04:53:59.010Z,11.73
2023-02-11T04:56:25.418Z,13.02
2023-02-11T04:58:51.847Z,13.50
2023-02-11T05:01:18.261Z,11.07
2023-02-11T05:03:45.692Z,11.93
2023-02-11T05:06:12.186Z,14.57
2023-02-11T05:08:38.716Z,13.90
2023-02-11T05:11:05.285Z,13.18
2023-02-11T05:13:31.995Z,16.50
2023-02-11T05:15:58.568Z,11.65
2023-02-11T05:18:24.930Z,10.98
2023-02-11T05:20:51.344Z,11.48
2023-02-11T05:23:17.752Z,20.52
2023-02-11T05:25:44.161Z,10.40
2023-02-11T05:28:10.653Z,12.27
2023-02-11T05:30:37.172Z,15.00
2023-02-11T05:33:03.566Z,11.45
2023-02-11T05:35:30.016Z,12.93
2023-02-11T05:37:56.409Z,14.95
2023-02-11T05:40:22.845Z,13.82
2023-02-11T05:42:49.225Z,13.18
2023-02-11T05:45:15.657Z,11.32
2023-02-11T05:47:42.050Z,14.43
2023-02-11T05:50:09.172Z,11.27
2023-02-11T05:52:35.630Z,12.07
2023-02-11T05:55:02.244Z,11.48
2023-02-11T05:57:28.702Z,12.82
2023-02-11T05:59:55.079Z,15.75
2023-02-11T06:02:21.591Z,13.30
2023-02-11T06:04:48.059Z,13.10
2023-02-11T06:07:14.437Z,14.52
2023-02-11T06:09:40.836Z,15.00
2023-02-11T06:12:07.285Z,13.48
2023-02-11T06:14:34.167Z,15.55
2023-02-11T06:17:00.662Z,14.50
2023-02-11T06:19:27.061Z,12.55
2023-02-11T06:21:53.460Z,14.18
2023-02-11T06:24:38.274Z,12.45
2023-02-11T06:27:06.241Z,12.82
2023-02-11T06:29:32.729Z,13.90
2023-02-11T06:31:59.196Z,11.57
2023-02-11T06:34:25.691Z,12.68
2023-02-11T06:36:52.039Z,10.95
2023-02-11T06:39:18.568Z,14.48
2023-02-11T06:41:45.048Z,11.35
2023-02-11T06:44:11.411Z,13.43
2023-02-11T06:46:37.880Z,13.45
2023-02-11T06:49:04.394Z,14.07
2023-02-11T06:51:30.774Z,13.65
2023-02-11T06:53:57.232Z,13.82
2023-02-11T06:56:24.426Z,16.17
2023-02-11T06:58:55.451Z,12.60
2023-02-11T07:01:22.331Z,13.75
2023-02-11T07:03:48.738Z,15.25
2023-02-11T07:06:16.614Z,16.33
2023-02-11T07:08:43.463Z,12.40
2023-02-11T07:11:11.191Z,12.10
2023-02-11T07:13:37.648Z,12.95
2023-02-11T07:16:07.997Z,19.50
2023-02-11T07:18:34.699Z,13.50
2023-02-11T07:21:04.313Z,12.52
2023-02-11T07:23:30.687Z,18.25
2023-02-11T07:25:57.189Z,14.60
2023-02-11T07:28:23.614Z,13.60
2023-02-11T07:30:50.153Z,16.90
2023-02-11T07:33:16.548Z,14.65
2023-02-11T07:35:42.906Z,16.92
2023-02-11T07:38:09.254Z,14.98
2023-02-11T07:40:36.283Z,14.07
2023-02-11T07:43:02.971Z,17.85
2023-02-11T07:45:29.336Z,13.02
2023-02-11T07:47:55.685Z,11.80
2023-02-11T07:50:22.161Z,15.65
2023-02-11T07:52:48.645Z,13.95
2023-02-11T07:55:15.230Z,12.85
2023-02-11T07:57:42.017Z,12.68
2023-02-11T08:00:08.701Z,13.98
2023-02-11T08:02:37.766Z,13.18
2023-02-11T08:05:04.255Z,15.65
2023-02-11T08:07:30.737Z,15.70
2023-02-11T08:09:57.153Z,14.18
2023-02-11T08:12:23.614Z,14.13
2023-02-11T08:14:50.069Z,17.55
2023-02-11T08:17:17.110Z,13.00
2023-02-11T08:19:43.627Z,17.50
2023-02-11T08:22:10.075Z,16.02
2023-02-11T08:24:36.528Z,19.35
2023-02-11T08:27:03.146Z,21.65
2023-02-11T08:29:29.681Z,18.45
2023-02-11T08:31:56.362Z,19.67
2023-02-11T08:34:22.921Z,15.70
2023-02-11T08:36:49.331Z,13.00
2023-02-11T08:39:19.710Z,12.43
2023-02-11T08:41:48.843Z,11.95
2023-02-11T08:44:15.732Z,12.45
2023-02-11T08:46:42.093Z,12.10
2023-02-11T08:49:08.556Z,12.57
2023-02-11T08:51:35.122Z,10.65
2023-02-11T08:54:02.025Z,11.98
2023-02-11T08:56:28.979Z,9.05
2023-02-11T08:58:55.494Z,9.38
2023-02-11T09:01:23.612Z,8.18
2023-02-11T09:03:50.205Z,10.15
2023-02-11T09:06:18.473Z,9.10
2023-02-11T09:08:46.518Z,8.27
2023-02-11T09:11:13.110Z,9.13
2023-02-11T09:13:40.561Z,9.98
2023-02-11T09:16:07.176Z,9.02
2023-02-11T09:18:33.564Z,10.38
2023-02-11T09:21:07.537Z,10.48
2023-02-11T09:23:34.558Z,9.50
2023-02-11T09:26:09.302Z,7.88
2023-02-11T09:28:36.000Z,8.70
2023-02-11T09:31:06.734Z,7.30
2023-02-11T09:33:33.471Z,7.38
2023-02-11T09:36:03.753Z,9.15
2023-02-11T09:38:30.200Z,7.07
2023-02-11T09:40:56.865Z,8.23
2023-02-11T09:43:27.178Z,8.90
2023-02-11T09:45:54.801Z,7.13
2023-02-11T09:48:22.307Z,8.57
2023-02-11T09:51:11.795Z,10.23
2023-02-11T09:53:41.373Z,7.00
2023-02-11T09:56:12.002Z,8.02
2023-02-11T09:58:39.818Z,8.52
2023-02-11T10:01:18.851Z,7.45
2023-02-11T10:04:06.098Z,7.40
2023-02-11T10:08:58.823Z,6.13
2023-02-11T10:11:34.472Z,7.20
2023-02-11T10:14:15.874Z,7.90
2023-02-11T10:16:42.254Z,7.03
2023-02-11T10:19:23.944Z,5.35
2023-02-11T10:21:58.982Z,7.47
2023-02-11T10:24:28.218Z,5.55
2023-02-11T10:26:55.049Z,8.15
2023-02-11T10:29:30.494Z,8.73
2023-02-11T10:31:58.446Z,6.20
2023-02-11T10:34:24.969Z,5.97
2023-02-11T10:36:51.479Z,7.07
2023-02-11T10:39:22.755Z,7.65
2023-02-11T10:42:10.654Z,6.78
2023-02-11T10:44:42.507Z,4.47
2023-02-11T10:47:15.730Z,4.45
2023-02-11T10:52:14.342Z,6.18
2023-02-11T10:54:40.746Z,4.25
2023-02-11T10:57:07.564Z,5.73
2023-02-11T10:59:38.406Z,6.47
2023-02-11T11:02:07.828Z,4.38
2023-02-11T11:04:39.747Z,5.25
2023-02-11T11:07:12.335Z,5.03
2023-02-11T11:09:49.622Z,5.53
2023-02-11T11:12:36.590Z,5.43
2023-02-11T11:15:19.090Z,5.10
2023-02-11T11:17:46.245Z,4.60
2023-02-11T11:22:39.309Z,5.85
2023-02-11T11:25:06.039Z,4.80
2023-02-11T11:27:32.645Z,5.70
2023-02-11T11:30:01.352Z,5.57
2023-02-11T11:32:37.158Z,5.07
2023-02-11T11:35:07.541Z,4.93
2023-02-11T11:37:35.729Z,5.07
2023-02-11T11:40:11.344Z,5.93
2023-02-11T11:42:39.331Z,4.25
2023-02-11T11:45:15.118Z,6.85
2023-02-11T11:47:50.679Z,10.95
2023-02-11T11:50:18.514Z,8.68
2023-02-11T11:52:50.758Z,10.27
2023-02-11T11:55:29.369Z,7.38
2023-02-11T11:57:55.826Z,9.13
2023-02-11T12:00:32.352Z,6.45
2023-02-11T12:03:14.492Z,7.35
2023-02-11T12:05:43.823Z,5.85
2023-02-11T12:08:13.081Z,6.05
2023-02-11T12:10:42.255Z,5.43
2023-02-11T12:13:20.962Z,5.82
2023-02-11T12:16:13.981Z,5.65
2023-02-11T12:19:10.165Z,5.68
2023-02-11T12:21:45.427Z,7.75
2023-02-11T12:24:29.561Z,7.18
2023-02-11T12:27:07.406Z,6.00
2023-02-11T12:29:53.228Z,4.60
2023-02-11T12:32:27.241Z,5.40
2023-02-11T12:35:16.994Z,4.50
2023-02-11T12:37:52.859Z,5.30
2023-02-11T12:40:32.150Z,8.15
2023-02-11T12:43:17.745Z,5.47
2023-02-11T12:45:49.296Z,4.28
2023-02-11T12:48:25.425Z,4.32
2023-02-11T12:50:56.648Z,5.95
2023-02-11T12:53:39.770Z,6.65
2023-02-11T12:56:14.565Z,5.15
2023-02-11T12:58:45.532Z,6.43
2023-02-11T13:01:22.540Z,7.32
2023-02-11T13:04:06.538Z,7.07
2023-02-11T13:06:41.739Z,6.35
2023-02-11T13:09:13.135Z,6.82
2023-02-11T13:11:40.911Z,6.38
2023-02-11T13:14:07.289Z,7.22
2023-02-11T13:16:36.876Z,6.57
2023-02-11T13:19:12.571Z,7.85
2023-02-11T13:21:55.686Z,7.10
2023-02-11T13:24:45.268Z,7.75
2023-02-11T13:27:28.916Z,7.03
2023-02-11T13:30:14.467Z,9.25
2023-02-11T13:32:55.939Z,8.00
2023-02-11T13:35:42.073Z,7.22
2023-02-11T13:38:19.579Z,6.70
2023-02-11T13:40:57.728Z,6.65
2023-02-11T13:43:28.444Z,6.72
2023-02-11T13:45:59.024Z,7.07
2023-02-11T13:48:30.279Z,7.10
2023-02-11T13:50:58.995Z,7.88
2023-02-11T13:53:25.602Z,7.95
2023-02-11T13:55:54.302Z,6.80
2023-02-11T13:58:26.745Z,7.85
2023-02-11T14:00:53.489Z,6.60
2023-02-11T14:03:38.875Z,6.45
2023-02-11T14:06:27.266Z,6.72
2023-02-11T14:09:09.006Z,8.70
2023-02-11T14:11:41.653Z,6.35
2023-02-11T14:14:14.461Z,6.57
2023-02-11T14:17:02.380Z,7.47
2023-02-11T14:19:33.569Z,8.57
2023-02-11T14:22:20.212Z,9.25
2023-02-11T14:24:48.830Z,8.55
2023-02-11T14:27:25.817Z,7.80
2023-02-11T14:30:07.657Z,9.23
2023-02-11T14:32:43.279Z,9.38
2023-02-11T14:35:19.708Z,10.25
2023-02-11T14:37:52.751Z,10.05
2023-02-11T14:40:33.110Z,8.18
2023-02-11T14:43:22.952Z,6.80
2023-02-11T14:45:56.737Z,7.20
2023-02-11T14:48:28.255Z,6.50
2023-02-11T14:50:58.780Z,6.13
2023-02-11T14:53:25.869Z,7.18
2023-02-11T14:55:53.608Z,6.85
2023-02-11T14:58:20.082Z,6.43
2023-02-11T15:00:52.946Z,5.70
2023-02-11T15:03:31.816Z,6.82
2023-02-11T15:06:10.350Z,6.75
2023-02-11T15:08:38.237Z,7.10
2023-02-11T15:11:09.668Z,6.25
2023-02-11T15:13:36.102Z,6.38
2023-02-11T15:16:07.349Z,5.80
2023-02-11T15:18:37.428Z,5.80
2023-02-11T15:21:04.090Z,6.05
2023-02-11T15:23:31.199Z,6.20
2023-02-11T15:26:03.238Z,5.35
2023-02-11T15:28:31.287Z,5.97
2023-02-11T15:31:05.416Z,7.38
2023-02-11T15:33:32.719Z,5.47
2023-02-11T15:36:00.485Z,5.72
2023-02-11T15:38:27.286Z,6.22
2023-02-11T15:40:58.365Z,6.88
2023-02-11T15:43:25.209Z,6.30
2023-02-11T15:45:51.607Z,6.90
2023-02-11T15:48:26.722Z,6.85
2023-02-11T15:50:58.856Z,6.53
2023-02-11T15:53:28.045Z,6.07
2023-02-11T15:56:00.070Z,5.60
2023-02-11T15:58:26.494Z,6.13
2023-02-11T16:00:59.824Z,5.07
2023-02-11T16:03:28.819Z,7.60
2023-02-11T16:05:56.492Z,6.65
2023-02-11T16:08:25.024Z,5.45
2023-02-11T16:10:58.925Z,6.10
2023-02-11T16:13:30.603Z,7.05
2023-02-11T16:15:58.661Z,8.70
2023-02-11T16:18:37.858Z,9.02
2023-02-11T16:21:06.980Z,7.05
2023-02-11T16:23:35.581Z,9.93
2023-02-11T16:26:08.772Z,7.50
2023-02-11T16:28:36.445Z,9.30
2023-02-11T16:31:03.548Z,8.07
2023-02-11T16:33:30.238Z,7.05
2023-02-11T16:35:57.705Z,6.20
2023-02-11T16:38:24.108Z,6.53
2023-02-11T16:40:51.124Z,7.28
2023-02-11T16:43:19.164Z,5.93
2023-02-11T16:45:46.157Z,8.90
2023-02-11T16:48:15.246Z,7.47
2023-02-11T16:50:44.165Z,8.35
2023-02-11T16:53:11.540Z,5.95
2023-02-11T16:55:38.853Z,6.38
2023-02-11T17:00:32.996Z,6.50
2023-02-11T17:02:59.402Z,5.13
2023-02-11T17:05:26.387Z,6.93
2023-02-11T17:07:52.856Z,6.82
2023-02-11T17:10:21.424Z,5.85
2023-02-11T17:12:48.231Z,6.45
2023-02-11T17:15:14.776Z,6.13
2023-02-11T17:17:41.322Z,8.88
2023-02-11T17:20:09.381Z,5.65
2023-02-11T17:22:35.831Z,5.57
2023-02-11T17:25:02.407Z,6.55
2023-02-11T17:27:28.898Z,6.38
2023-02-11T17:29:55.291Z,6.22
2023-02-11T17:32:21.767Z,6.60
2023-02-11T17:34:48.201Z,6.28
2023-02-11T17:37:14.611Z,8.90
2023-02-11T17:39:41.094Z,7.88
2023-02-11T17:42:08.550Z,7.05
2023-02-11T17:44:35.066Z,8.23
2023-02-11T17:47:01.443Z,8.82
2023-02-11T17:49:27.993Z,7.72
2023-02-11T17:51:54.393Z,8.15
2023-02-11T17:54:20.878Z,7.50
2023-02-11T17:56:50.552Z,7.50
2023-02-11T17:59:17.217Z,6.72
2023-02-11T18:01:43.737Z,7.35
2023-02-11T18:04:12.614Z,6.32
2023-02-11T18:06:39.073Z,6.05
2023-02-11T18:09:05.699Z,7.53
2023-02-11T18:11:32.633Z,6.53
2023-02-11T18:13:59.699Z,7.32
2023-02-11T18:16:28.645Z,6.50
2023-02-11T18:18:55.597Z,7.47
2023-02-11T18:21:22.420Z,7.00
2023-02-11T18:23:49.137Z,8.52
2023-02-11T18:26:16.342Z,7.68
2023-02-11T18:28:45.611Z,7.28
2023-02-11T18:31:12.694Z,7.38
2023-02-11T18:33:39.833Z,7.07
2023-02-11T18:36:07.295Z,7.63
2023-02-11T18:38:34.078Z,6.50
2023-02-11T18:41:00.521Z,5.82
2023-02-11T18:43:31.499Z,6.03
2023-02-11T18:45:58.266Z,6.97
2023-02-11T18:48:28.229Z,5.97
2023-02-11T18:50:55.224Z,7.93
2023-02-11T18:53:22.213Z,4.82
2023-02-11T18:55:48.610Z,6.50
2023-02-11T18:58:15.589Z,7.15
2023-02-11T19:00:43.695Z,5.57
2023-02-11T19:03:10.358Z,6.30
2023-02-11T19:05:43.719Z,6.38
2023-02-11T19:08:10.124Z,5.53
2023-02-11T19:10:39.881Z,5.05
2023-02-11T19:13:06.298Z,6.07
2023-02-11T19:15:32.826Z,6.35
2023-02-11T19:17:59.188Z,5.93
2023-02-11T19:20:25.573Z,7.38
2023-02-11T19:22:51.963Z,6.47
2023-02-11T19:25:18.611Z,6.53
2023-02-11T19:27:45.029Z,6.93
2023-02-11T19:30:11.604Z,8.60
2023-02-11T19:32:37.979Z,6.40
2023-02-11T19:35:04.536Z,7.05
2023-02-11T19:37:30.900Z,8.27
2023-02-11T19:39:57.351Z,6.85
2023-02-11T19:42:25.893Z,6.75
2023-02-11T19:44:53.789Z,8.82
2023-02-11T19:47:26.646Z,8.23
2023-02-11T19:49:53.460Z,6.90
2023-02-11T19:52:19.924Z,9.10
2023-02-11T19:54:46.342Z,7.00
2023-02-11T19:57:12.744Z,7.30
2023-02-11T19:59:39.160Z,7.00
2023-02-11T20:02:05.535Z,7.38
2023-02-11T20:04:32.213Z,7.15
2023-02-11T20:06:58.627Z,6.72
2023-02-11T20:09:26.498Z,6.82
2023-02-11T20:11:52.872Z,6.65
2023-02-11T20:14:19.378Z,7.80
2023-02-11T20:16:49.601Z,7.60
2023-02-11T20:19:18.136Z,7.13
2023-02-11T20:21:47.161Z,7.20
2023-02-11T20:24:14.124Z,6.75
2023-02-11T20:26:42.331Z,6.47
2023-02-11T20:29:08.954Z,7.60
2023-02-11T20:31:35.586Z,7.45
2023-02-11T20:34:02.352Z,6.95
2023-02-11T20:36:35.517Z,8.25
2023-02-11T20:39:02.896Z,7.10
2023-02-11T20:41:32.435Z,7.25
2023-02-11T20:43:59.913Z,6.85
2023-02-11T20:46:28.149Z,8.30
2023-02-11T20:48:55.075Z,6.78
2023-02-11T20:51:26.099Z,6.85
2023-02-11T20:53:53.089Z,6.63
2023-02-11T20:56:21.057Z,8.00
2023-02-11T20:58:47.546Z,7.28
2023-02-11T21:01:19.426Z,7.88
2023-02-11T21:03:49.931Z,6.95
2023-02-11T21:06:16.446Z,6.88
2023-02-11T21:08:42.855Z,7.78
2023-02-11T21:11:09.284Z,6.88
2023-02-11T21:13:36.241Z,6.85
2023-02-11T21:16:03.028Z,6.10
2023-02-11T21:18:29.658Z,6.72
2023-02-11T21:20:56.421Z,7.13
2023-02-11T21:23:23.066Z,6.70
2023-02-11T21:25:50.359Z,6.80
2023-02-11T21:30:43.266Z,7.82
2023-02-11T21:33:09.746Z,7.10
2023-02-11T21:35:36.847Z,6.93
2023-02-11T21:38:04.143Z,6.68
2023-02-11T21:42:57.375Z,7.25
2023-02-11T21:45:24.911Z,6.85
2023-02-11T21:47:53.039Z,7.15
2023-02-11T21:50:19.457Z,8.02
2023-02-11T21:52:45.958Z,7.57
2023-02-11T21:55:12.322Z,7.80
2023-02-11T21:57:38.752Z,6.82
2023-02-11T22:00:07.530Z,7.13
2023-02-11T22:02:37.149Z,6.35
2023-02-11T22:05:03.789Z,7.88
2023-02-11T22:07:30.200Z,7.25
2023-02-11T22:09:56.648Z,7.28
2023-02-11T22:12:23.058Z,6.85
2023-02-11T22:14:49.472Z,7.03
2023-02-11T22:17:16.063Z,6.22
2023-02-11T22:19:42.511Z,6.78
2023-02-11T22:22:09.366Z,6.75
2023-02-11T22:24:35.923Z,7.38
2023-02-11T22:27:02.939Z,6.35
2023-02-11T22:29:29.344Z,6.85
2023-02-11T22:31:55.788Z,7.22
2023-02-11T22:34:22.314Z,6.63
2023-02-11T22:36:48.698Z,6.05
2023-02-11T22:39:15.987Z,6.47
2023-02-11T22:44:09.057Z,6.30
2023-02-11T22:46:36.821Z,7.05
2023-02-11T22:49:04.002Z,6.78
2023-02-11T22:51:30.484Z,7.35
2023-02-11T22:53:58.443Z,5.93
2023-02-11T22:56:25.385Z,5.00
2023-02-11T22:58:53.284Z,7.57
2023-02-11T23:01:20.400Z,5.72
2023-02-11T23:03:46.978Z,6.25
2023-02-11T23:06:13.790Z,6.63
2023-02-11T23:08:40.710Z,6.65
2023-02-11T23:11:09.000Z,14.98
2023-02-11T23:13:36.626Z,6.82
2023-02-11T23:16:04.604Z,6.68
2023-02-11T23:18:31.044Z,8.10
2023-02-11T23:21:02.175Z,9.63
2023-02-11T23:23:28.615Z,6.75
2023-02-11T23:25:55.247Z,9.15
2023-02-11T23:28:21.880Z,8.50
2023-02-11T23:30:48.400Z,6.28
2023-02-11T23:33:14.813Z,8.27
2023-02-11T23:35:41.248Z,8.57
2023-02-11T23:38:07.678Z,9.85
2023-02-11T23:40:34.053Z,13.23
2023-02-11T23:43:00.464Z,9.57
2023-02-11T23:45:26.838Z,9.52
2023-02-11T23:47:53.290Z,11.57
2023-02-11T23:50:19.750Z,11.30
2023-02-11T23:52:46.136Z,8.77
2023-02-11T23:55:12.509Z,10.48
2023-02-11T23:57:38.967Z,9.55
